• Join FlightAware (Why Join?)
  • Login
  • US Flag 
09:06AM EDT


 

Airport Tracker/Info


-or-


 

Live Flight TrackerFlight Track Log ✈ AWI3704 ✈ 11-May-2013 ✈ KALB - KPHL

Flight Track Log - Related Links

Times and Time Zones

All times are in EDT time to prevent confusion due to time zone crossing. See the AWI3704 flight status page for this flight to view local times or setup timezone preferences in your user account.

Time Position Orientation Groundspeed Altitude Reporting Facility
EDT Latitude Longitude Course Direction KTS MPH feet Rate Location/Type
12:59PM 42.7111 -73.8078 179° South 157 181 1,900  Level Boston Center
01:00PM 42.6936 -73.8639 247° West 212 244 3,700 2,040 Climbing Boston Center
01:01PM 42.7334 -74.2584 270° West  Level FlightAware Approximate
01:01PM 42.7050 -73.9572 279° West 268 308 6,200  Level Boston Center
01:02PM 42.6766 -74.3785 220° Southwest  Level FlightAware Approximate
01:02PM 42.7161 -74.0564 279° West 268 308 9,100  Level Boston Center
01:03PM 42.5901 -74.4758 220° Southwest  Level FlightAware Approximate
01:03PM 42.7289 -74.1728 279° West 263 303 11,800  Level Boston Center
01:04PM 42.5067 -74.5777 219° Southwest  Level FlightAware Approximate
01:04PM 42.7397 -74.2833 278° West 290 334 13,700  Level Boston Center
01:05PM 42.6903 -74.3722 233° Southwest 283 326 15,200 1,560 Climbing Boston Center
01:06PM 42.6244 -74.4436 219° Southwest 299 344 16,900 1,680 Climbing Boston Center
01:07PM 42.5606 -74.5203 221° Southwest 315 362 18,600 1,020 Climbing Boston Center
01:08PM 42.4925 -74.5997 221° Southwest 315 362 19,000 180 Climbing Boston Center
01:09PM 42.4200 -74.6817 220° Southwest 327 376 19,000  Level Boston Center
01:10PM 42.3475 -74.7633 220° Southwest 334 384 19,000  Level Boston Center
01:12PM 42.2175 -74.9150 221° Southwest 338 389 19,000  Level New York Center
01:13PM 42.1483 -74.9861 217° Southwest 343 395 19,000  Level New York Center
01:14PM 42.0606 -75.0558 211° Southwest 348 400 19,000  Level New York Center
01:15PM 41.9789 -75.1231 211° Southwest 343 395 19,000  Level New York Center
01:16PM 41.8994 -75.1875 211° Southwest 343 395 19,000  Level New York Center
01:17PM 41.8244 -75.2494 212° Southwest 350 403 19,000 -660 Level New York Center
01:18PM 41.7342 -75.3211 211° Southwest 355 409 17,700 -1,620 Descending New York Center
01:19PM 41.6547 -75.3850 211° Southwest 349 402 15,900 -1,800 Descending New York Center
01:20PM 41.5817 -75.4439 211° Southwest 338 389 14,300 -1,560 Descending New York Center
01:21PM 41.5169 -75.4975 212° Southwest 313 360 12,800 -1,200 Descending New York Center
01:22PM 41.4481 -75.5508 210° Southwest 301 346 12,000 -420 Descending New York Center
01:23PM 41.3708 -75.6117 211° Southwest 301 346 12,000  Level New York Center
01:24PM 41.3061 -75.6622 210° Southwest 301 346 12,000 -600 Level New York Center
01:25PM 41.2244 -75.6756 187° South 287 330 10,900 -1,020 Descending New York Center
01:26PM 41.1442 -75.6506 167° South 287 330 10,000 -540 Descending New York Center
01:27PM 41.0764 -75.6292 167° South 292 336 9,900  Descending New York Center
01:28PM 41.0022 -75.6044 166° South 292 336 10,000  Climbing New York Center
01:29PM 40.9281 -75.5828 168° South 278 320 10,000  Level New York Center
01:30PM 40.8500 -75.5581 167° South 278 320 10,100  Climbing New York Center
01:31PM 40.7758 -75.5364 168° South 278 320 10,000 -60 Descending New York Center
01:32PM 40.7019 -75.5122 166° South 278 320 10,000  Level New York Center
01:33PM 40.6278 -75.4878 166° South 278 320 10,000 -540 Level New York Center
01:34PM 40.5517 -75.4608 165° South 278 320 9,000 -540 Descending New York Center
01:35PM 40.4975 -75.4108 145° Southeast 255 293 9,000  Level New York Center
01:36PM 40.4533 -75.3642 141° Southeast 233 268 9,000 -420 Level New York Center
01:37PM 40.3972 -75.3086 143° Southeast 240 276 8,200 -960 Descending New York Center
01:38PM 40.3358 -75.2828 162° South 219 252 7,100 -660 Descending New York Center
01:39PM 40.2850 -75.3011 195° South 188 216 6,900 -120 Descending New York Center
01:40PM 40.2419 -75.3364 212° Southwest 188 216 6,900 60 Level New York Center
01:41PM 40.1897 -75.3411 184° South 188 216 7,100 -180 Climbing New York Center
01:42PM 40.1342 -75.3239 167° South 204 235 6,600 -540 Descending New York Center
01:43PM 40.0850 -75.2964 157° South 204 235 6,100 -420 Descending New York Center
01:44PM 40.0667 -75.2833 151° Southeast 206 237 6,100  Level Philadelphia TRACON
01:45PM 40.0500 -75.2167 108° East 259 298 6,100 -60 Level Philadelphia TRACON
01:46PM 40.0333 -75.1333 105° East 217 250 6,000 -60 Descending Philadelphia TRACON
01:47PM 40.0000 -75.0833 131° Southeast 219 252 6,000 -300 Level Philadelphia TRACON
01:48PM 40.0333 -75.0000 62° Northeast 238 274 5,500 -480 Descending Philadelphia TRACON
01:49PM 40.0500 -74.9167 75° East 225 259 5,100 -300 Descending Philadelphia TRACON
01:50PM 40.0333 -74.8500 108° East 204 235 5,000 -360 Descending Philadelphia TRACON
01:51PM 39.9833 -74.8333 166° South 181 208 4,400 -600 Descending Philadelphia TRACON
01:52PM 39.9500 -74.8667 217° Southwest 165 190 3,900 -240 Descending Philadelphia TRACON
01:53PM 39.9333 -74.9333 252° West 173 199 4,000  Climbing Philadelphia TRACON
01:54PM 39.9167 -74.9833 247° West 166 191 3,900 -600 Descending Philadelphia TRACON
01:55PM 39.9167 -75.0333 270° West 162 186 2,800 -1,140 Descending Philadelphia TRACON